CSCL Fuzhou — ELYA7 — position and weather

sailwx.info

Track history (hours):
 
Tides and Currents Weather Stations Pressure Air Temp Water Temp Dewpoint Dewpoint Depression Visibility Wind Speed Wind Dir Waves Ship Positions

CSCL Fuzhou

Last reported at 2014-Aug-18 08:11 UTC. Time now 2014-Aug-20 20:33 UTC.
Position N 01°15' E 104°03'.

Length 207.4 m; beam 29.8 m; draft 11.4 m.

Type: Ship (hazmat cat A). MMSI: 636016483.

Date/timePositionNaut miles runAvg speedWind from/ knotsBaromVisibWave heightAir tempDewpointWater temp
2014-Aug-18 08:11N 01°15' E 104°03'914.3
2014-Aug-18 07:33N 01°13' E 103°55'9 9.1
2014-Aug-18 06:33N 01°15' E 103°46'2 1.9
2014-Aug-18 05:27N 01°17' E 103°46'0 0.0
2014-Aug-18 04:30N 01°17' E 103°46'0 0.0
2014-Aug-18 03:30N 01°17' E 103°46'0 0.0
2014-Aug-18 02:33N 01°17' E 103°46'0 0.0
2014-Aug-18 01:24N 01°17' E 103°46'0 0.0
2014-Aug-18 00:24N 01°17' E 103°46'0 0.0
2014-Aug-17 18:06N 01°17' E 103°46'0 0.0
2014-Aug-17 17:24N 01°17' E 103°46'0 0.0
2014-Aug-17 16:18N 01°17' E 103°46'0 0.0
2014-Aug-17 15:30N 01°17' E 103°46'0 0.0
2014-Aug-17 14:24N 01°17' E 103°46'0 0.0
2014-Aug-17 13:30N 01°17' E 103°46'0 0.0
2014-Aug-17 12:30N 01°17' E 103°46'0 0.0
2014-Aug-17 11:30N 01°17' E 103°46'0 0.0
2014-Aug-17 10:30N 01°17' E 103°46'0 0.0
2014-Aug-17 09:30N 01°17' E 103°46'0 0.0
2014-Aug-17 08:24N 01°17' E 103°46'0 0.0
2014-Aug-17 07:33N 01°17' E 103°46'0 0.0
2014-Aug-17 06:18N 01°17' E 103°46'0 0.0
2014-Aug-17 05:30N 01°17' E 103°46'0 0.0
2014-Aug-17 04:18N 01°17' E 103°46'0 0.0
2014-Aug-17 03:24N 01°17' E 103°46'0 0.0
2014-Aug-17 02:30N 01°17' E 103°46'1 1.6
2014-Aug-17 01:33N 01°16' E 103°46'1010.4
2014-Aug-17 00:33N 01°15' E 103°56'8 7.8
2014-Aug-16 23:33N 01°16' E 104°04'10 9.2
2014-Aug-16 22:29N 01°17' E 104°14'  
2014-Aug-10 21:27N 01°15' E 104°04'1214.0
2014-Aug-10 20:33N 01°11' E 103°52'9 8.5
2014-Aug-10 19:32N 01°17' E 103°45'0 0.4
2014-Aug-10 18:28N 01°17' E 103°46'0 0.0
2014-Aug-10 17:10N 01°17' E 103°46'0 0.0
2014-Aug-10 16:28N 01°17' E 103°46'0 0.0
2014-Aug-10 15:04N 01°17' E 103°46'0 0.0
2014-Aug-10 14:28N 01°17' E 103°46'0 0.0
2014-Aug-10 13:22N 01°17' E 103°46'0 0.0
2014-Aug-10 12:31N 01°17' E 103°46'0 0.0
2014-Aug-10 11:28N 01°17' E 103°46'0 0.0
2014-Aug-10 10:22N 01°17' E 103°46'0 0.0
2014-Aug-10 08:28N 01°17' E 103°46'0 0.0
2014-Aug-10 07:28N 01°17' E 103°46'0 0.0
2014-Aug-10 06:28N 01°17' E 103°46'0 0.0
2014-Aug-10 05:22N 01°17' E 103°46'0 0.0
2014-Aug-10 04:28N 01°17' E 103°46'0 0.0
2014-Aug-10 03:31N 01°17' E 103°46'0 0.0
2014-Aug-10 02:28N 01°17' E 103°46'0 0.1
2014-Aug-10 01:22N 01°17' E 103°46'0 0.0
2014-Aug-09 23:31N 01°17' E 103°46'1 1.1
2014-Aug-09 22:33N 01°16' E 103°45'9 9.2
2014-Aug-09 21:33N 01°14' E 103°54'4 3.9
2014-Aug-09 20:33N 01°15' E 103°58'8 8.0
2014-Aug-09 19:32N 01°16' E 104°06'  
Track history (hours):
 
Tides and Currents Weather Stations Pressure Air Temp Water Temp Dewpoint Dewpoint Depression Visibility Wind Speed Wind Dir Waves Ship Positions

CSCL Fuzhou

Last reported at 2014-Aug-18 08:11 UTC. Time now 2014-Aug-20 20:33 UTC.
Position N 01°15' E 104°03'.

Length 207.4 m; beam 29.8 m; draft 11.4 m.

Type: Ship (hazmat cat A). MMSI: 636016483.

Date/timePositionNaut miles runAvg speedWind from/ knotsBaromVisibWave heightAir tempDewpointWater temp
2014-Aug-18 08:11N 01°15' E 104°03'914.3
2014-Aug-18 07:33N 01°13' E 103°55'9 9.1
2014-Aug-18 06:33N 01°15' E 103°46'2 1.9
2014-Aug-18 05:27N 01°17' E 103°46'0 0.0
2014-Aug-18 04:30N 01°17' E 103°46'0 0.0
2014-Aug-18 03:30N 01°17' E 103°46'0 0.0
2014-Aug-18 02:33N 01°17' E 103°46'0 0.0
2014-Aug-18 01:24N 01°17' E 103°46'0 0.0
2014-Aug-18 00:24N 01°17' E 103°46'0 0.0
2014-Aug-17 18:06N 01°17' E 103°46'0 0.0
2014-Aug-17 17:24N 01°17' E 103°46'0 0.0
2014-Aug-17 16:18N 01°17' E 103°46'0 0.0
2014-Aug-17 15:30N 01°17' E 103°46'0 0.0
2014-Aug-17 14:24N 01°17' E 103°46'0 0.0
2014-Aug-17 13:30N 01°17' E 103°46'0 0.0
2014-Aug-17 12:30N 01°17' E 103°46'0 0.0
2014-Aug-17 11:30N 01°17' E 103°46'0 0.0
2014-Aug-17 10:30N 01°17' E 103°46'0 0.0
2014-Aug-17 09:30N 01°17' E 103°46'0 0.0
2014-Aug-17 08:24N 01°17' E 103°46'0 0.0
2014-Aug-17 07:33N 01°17' E 103°46'0 0.0
2014-Aug-17 06:18N 01°17' E 103°46'0 0.0
2014-Aug-17 05:30N 01°17' E 103°46'0 0.0
2014-Aug-17 04:18N 01°17' E 103°46'0 0.0
2014-Aug-17 03:24N 01°17' E 103°46'0 0.0
2014-Aug-17 02:30N 01°17' E 103°46'1 1.6
2014-Aug-17 01:33N 01°16' E 103°46'1010.4
2014-Aug-17 00:33N 01°15' E 103°56'8 7.8
2014-Aug-16 23:33N 01°16' E 104°04'10 9.2
2014-Aug-16 22:29N 01°17' E 104°14'  
2014-Aug-10 21:27N 01°15' E 104°04'1214.0
2014-Aug-10 20:33N 01°11' E 103°52'9 8.5
2014-Aug-10 19:32N 01°17' E 103°45'0 0.4
2014-Aug-10 18:28N 01°17' E 103°46'0 0.0
2014-Aug-10 17:10N 01°17' E 103°46'0 0.0
2014-Aug-10 16:28N 01°17' E 103°46'0 0.0
2014-Aug-10 15:04N 01°17' E 103°46'0 0.0
2014-Aug-10 14:28N 01°17' E 103°46'0 0.0
2014-Aug-10 13:22N 01°17' E 103°46'0 0.0
2014-Aug-10 12:31N 01°17' E 103°46'0 0.0
2014-Aug-10 11:28N 01°17' E 103°46'0 0.0
2014-Aug-10 10:22N 01°17' E 103°46'0 0.0
2014-Aug-10 08:28N 01°17' E 103°46'0 0.0
2014-Aug-10 07:28N 01°17' E 103°46'0 0.0
2014-Aug-10 06:28N 01°17' E 103°46'0 0.0
2014-Aug-10 05:22N 01°17' E 103°46'0 0.0
2014-Aug-10 04:28N 01°17' E 103°46'0 0.0
2014-Aug-10 03:31N 01°17' E 103°46'0 0.0
2014-Aug-10 02:28N 01°17' E 103°46'0 0.1
2014-Aug-10 01:22N 01°17' E 103°46'0 0.0
2014-Aug-09 23:31N 01°17' E 103°46'1 1.1
2014-Aug-09 22:33N 01°16' E 103°45'9 9.2
2014-Aug-09 21:33N 01°14' E 103°54'4 3.9
2014-Aug-09 20:33N 01°15' E 103°58'8 8.0
2014-Aug-09 19:32N 01°16' E 104°06'  

Dump ship's entire track history